Kapitan Dranitsyn — UCJP — position and weather

sailwx.info

Track history (hours):
 
Tides and Currents Weather Stations Pressure Air Temp Water Temp Dewpoint Dewpoint Depression Visibility Wind Speed Wind Dir Waves Ship Positions

Oceanographic research ship Kapitan Dranitsyn (Russia)

Detailed information on ship capabilities available from ARCUS's ALIAS (Arctic Logistics Information and Support) project.

Last reported at 2016-Jul-11 15:25 UTC. Time now 2016-Jul-25 08:12 UTC.
Position N 59°53' E 030°12'.
Warning: this ship's position is 13 days out of date.

Length 132 m; beam 27 m.

Type: Other ship. MMSI: 273138300.

Date/timePositionNaut miles runAvg speedWind from/ knotsBaromVisibWave heightAir tempDewpointWater temp
2016-Jul-11 15:25N 59°53' E 030°12'0 0.0
2016-Jul-11 14:33N 59°53' E 030°12'1 0.8
2016-Jul-11 13:33N 59°53' E 030°13'0 0.0
2016-Jul-11 12:33N 59°53' E 030°13'  
2016-Jul-02 10:32N 59°53' E 030°13'0 0.0
2016-Jul-02 09:32N 59°53' E 030°13'0 0.0
2016-Jul-02 08:32N 59°53' E 030°13'0 0.0
2016-Jul-02 07:32N 59°53' E 030°13'0 0.0
2016-Jul-02 06:32N 59°53' E 030°13'0 0.0
2016-Jul-02 04:32N 59°53' E 030°13'0 0.0
2016-Jul-02 03:33N 59°53' E 030°13'4 4.4
2016-Jul-02 02:33N 59°54' E 030°04'1110.9
2016-Jul-02 01:33N 59°59' E 029°44'1010.3
2016-Jul-02 00:33N 60°02' E 029°24'8 8.0
2016-Jul-01 23:33N 60°02' E 029°08'8 8.5
2016-Jul-01 22:33N 60°02' E 028°51'9 8.7
2016-Jul-01 21:33N 60°02' E 028°34'8 8.2
2016-Jul-01 20:33N 60°05' E 028°19'5 5.5
2016-Jul-01 19:33N 60°08' E 028°09'6 6.0
2016-Jul-01 18:33N 60°09' E 027°57'6 5.6
2016-Jul-01 17:33N 60°10' E 027°46'6 6.3
2016-Jul-01 16:33N 60°08' E 027°35'7 6.7
2016-Jul-01 15:33N 60°04' E 027°24'  
Track history (hours):
 
Tides and Currents Weather Stations Pressure Air Temp Water Temp Dewpoint Dewpoint Depression Visibility Wind Speed Wind Dir Waves Ship Positions

Oceanographic research ship Kapitan Dranitsyn (Russia)

Detailed information on ship capabilities available from ARCUS's ALIAS (Arctic Logistics Information and Support) project.

Last reported at 2016-Jul-11 15:25 UTC. Time now 2016-Jul-25 08:12 UTC.
Position N 59°53' E 030°12'.
Warning: this ship's position is 13 days out of date.

Length 132 m; beam 27 m.

Type: Other ship. MMSI: 273138300.

Date/timePositionNaut miles runAvg speedWind from/ knotsBaromVisibWave heightAir tempDewpointWater temp
2016-Jul-11 15:25N 59°53' E 030°12'0 0.0
2016-Jul-11 14:33N 59°53' E 030°12'1 0.8
2016-Jul-11 13:33N 59°53' E 030°13'0 0.0
2016-Jul-11 12:33N 59°53' E 030°13'  
2016-Jul-02 10:32N 59°53' E 030°13'0 0.0
2016-Jul-02 09:32N 59°53' E 030°13'0 0.0
2016-Jul-02 08:32N 59°53' E 030°13'0 0.0
2016-Jul-02 07:32N 59°53' E 030°13'0 0.0
2016-Jul-02 06:32N 59°53' E 030°13'0 0.0
2016-Jul-02 04:32N 59°53' E 030°13'0 0.0
2016-Jul-02 03:33N 59°53' E 030°13'4 4.4
2016-Jul-02 02:33N 59°54' E 030°04'1110.9
2016-Jul-02 01:33N 59°59' E 029°44'1010.3
2016-Jul-02 00:33N 60°02' E 029°24'8 8.0
2016-Jul-01 23:33N 60°02' E 029°08'8 8.5
2016-Jul-01 22:33N 60°02' E 028°51'9 8.7
2016-Jul-01 21:33N 60°02' E 028°34'8 8.2
2016-Jul-01 20:33N 60°05' E 028°19'5 5.5
2016-Jul-01 19:33N 60°08' E 028°09'6 6.0
2016-Jul-01 18:33N 60°09' E 027°57'6 5.6
2016-Jul-01 17:33N 60°10' E 027°46'6 6.3
2016-Jul-01 16:33N 60°08' E 027°35'7 6.7
2016-Jul-01 15:33N 60°04' E 027°24'  

Dump ship's entire track history